createdAt,value
2018-12-24T00:01:00.414Z,99.90
2018-12-24T00:03:40.966Z,99.90
2018-12-24T00:06:21.642Z,99.90
2018-12-24T00:09:02.578Z,99.90
2018-12-24T00:11:43.422Z,99.90
2018-12-24T00:14:23.790Z,99.90
2018-12-24T00:17:04.618Z,99.90
2018-12-24T00:19:45.426Z,99.90
2018-12-24T00:22:26.266Z,99.90
2018-12-24T00:25:06.670Z,99.90
2018-12-24T00:27:47.586Z,99.90
2018-12-24T00:30:28.596Z,99.90
2018-12-24T00:33:09.263Z,99.90
2018-12-24T00:35:49.994Z,99.90
2018-12-24T00:38:30.606Z,99.90
2018-12-24T00:41:11.470Z,99.90
2018-12-24T00:43:52.122Z,99.90
2018-12-24T00:46:32.974Z,99.90
2018-12-24T00:49:13.787Z,99.90
2018-12-24T00:51:54.462Z,99.90
2018-12-24T00:54:35.103Z,99.90
2018-12-24T00:57:15.945Z,99.90
2018-12-24T00:59:56.753Z,99.90
2018-12-24T01:02:37.322Z,99.90
2018-12-24T01:05:18.147Z,99.90
2018-12-24T01:07:58.818Z,99.90
2018-12-24T01:10:39.395Z,99.80
2018-12-24T01:13:20.762Z,99.90
2018-12-24T01:16:01.178Z,99.90
2018-12-24T01:18:41.866Z,99.90
2018-12-24T01:21:22.395Z,99.90
2018-12-24T01:24:03.199Z,99.90
2018-12-24T01:26:44.391Z,99.90
2018-12-24T01:29:24.938Z,99.90
2018-12-24T01:32:05.565Z,99.90
2018-12-24T01:34:46.286Z,99.90
2018-12-24T01:37:26.772Z,99.90
2018-12-24T01:40:07.455Z,99.90
2018-12-24T01:42:48.238Z,99.90
2018-12-24T01:45:28.802Z,99.90
2018-12-24T01:48:09.872Z,99.90
2018-12-24T01:50:50.614Z,99.90
2018-12-24T01:53:31.389Z,99.90
2018-12-24T01:56:11.954Z,99.90
2018-12-24T01:58:52.810Z,99.90
2018-12-24T02:01:33.697Z,99.90
2018-12-24T02:04:14.481Z,99.90
2018-12-24T02:06:55.311Z,99.90
2018-12-24T02:09:36.093Z,99.90
2018-12-24T02:12:16.941Z,99.90
2018-12-24T02:14:57.678Z,99.90
2018-12-24T02:17:38.282Z,99.90
2018-12-24T02:20:19.091Z,99.90
2018-12-24T02:22:59.526Z,99.90
2018-12-24T02:25:39.894Z,99.90
2018-12-24T02:28:20.815Z,99.90
2018-12-24T02:31:01.650Z,99.90
2018-12-24T02:33:42.306Z,99.90
2018-12-24T02:36:22.774Z,99.90
2018-12-24T02:39:04.295Z,99.90
2018-12-24T02:41:44.851Z,99.90
2018-12-24T02:44:25.710Z,99.90
2018-12-24T02:47:06.408Z,99.90
2018-12-24T02:49:47.134Z,99.90
2018-12-24T02:52:27.744Z,99.90
2018-12-24T02:55:08.422Z,99.90
2018-12-24T02:57:49.055Z,99.90
2018-12-24T03:00:29.900Z,99.90
2018-12-24T03:03:10.567Z,99.90
2018-12-24T03:05:51.306Z,99.90
2018-12-24T03:08:32.001Z,99.90
2018-12-24T03:11:12.757Z,99.90
2018-12-24T03:13:53.696Z,99.90
2018-12-24T03:16:34.287Z,99.90
2018-12-24T03:19:14.903Z,99.90
2018-12-24T03:21:55.647Z,99.90
2018-12-24T03:24:36.309Z,99.90
2018-12-24T03:27:17.418Z,99.90
2018-12-24T03:29:58.218Z,99.90
2018-12-24T03:32:38.796Z,99.90
2018-12-24T03:35:19.544Z,99.90
2018-12-24T03:38:00.355Z,99.90
2018-12-24T03:40:41.030Z,99.90
2018-12-24T03:43:21.952Z,99.90
2018-12-24T03:46:02.615Z,98.70
2018-12-24T03:48:43.589Z,97.50
2018-12-24T03:51:24.505Z,99.40
2018-12-24T03:54:05.580Z,99.50
2018-12-24T03:56:46.255Z,99.90
2018-12-24T03:59:27.011Z,99.90
2018-12-24T04:02:07.614Z,99.90
2018-12-24T04:04:48.779Z,99.90
2018-12-24T04:07:29.373Z,99.90
2018-12-24T04:10:10.364Z,99.90
2018-12-24T04:12:51.063Z,99.90
2018-12-24T04:15:31.810Z,99.90
2018-12-24T04:18:12.533Z,99.90
2018-12-24T04:20:53.314Z,99.90
2018-12-24T04:23:34.046Z,99.90
2018-12-24T04:26:14.817Z,99.90
2018-12-24T04:28:55.546Z,99.90
2018-12-24T04:31:36.234Z,99.90
2018-12-24T04:34:17.215Z,99.90
2018-12-24T04:36:57.823Z,99.90
2018-12-24T04:39:38.786Z,99.90
2018-12-24T04:42:19.315Z,99.90
2018-12-24T04:45:00.189Z,99.90
2018-12-24T04:47:40.939Z,99.90
2018-12-24T04:50:21.690Z,99.90
2018-12-24T04:53:00.894Z,99.90
2018-12-24T04:55:49.210Z,99.90
2018-12-24T04:58:37.310Z,99.90
2018-12-24T05:01:25.354Z,99.90
2018-12-24T05:04:13.662Z,99.90
2018-12-24T05:07:01.965Z,99.90
2018-12-24T05:09:50.027Z,99.90
2018-12-24T05:12:38.164Z,99.90
2018-12-24T05:15:26.487Z,99.90
2018-12-24T05:18:14.829Z,99.90
2018-12-24T05:21:02.885Z,99.90
2018-12-24T05:23:50.938Z,99.90
2018-12-24T05:26:39.086Z,99.90
2018-12-24T05:29:27.213Z,99.90
2018-12-24T05:32:15.637Z,99.90
2018-12-24T05:35:03.821Z,99.90
2018-12-24T05:37:51.870Z,99.90
2018-12-24T05:40:40.004Z,99.90
2018-12-24T05:43:28.122Z,99.90
2018-12-24T05:46:16.174Z,99.90
2018-12-24T05:49:04.302Z,99.90
2018-12-24T05:51:52.460Z,99.90
2018-12-24T05:54:40.801Z,99.90
2018-12-24T05:57:28.918Z,99.90
2018-12-24T06:00:17.210Z,99.90
2018-12-24T06:03:05.327Z,99.90
2018-12-24T06:05:53.464Z,99.90
2018-12-24T06:08:41.507Z,99.90
2018-12-24T06:11:29.691Z,99.90
2018-12-24T06:14:17.754Z,99.90
2018-12-24T06:16:58.634Z,99.90
2018-12-24T06:19:39.430Z,99.90
2018-12-24T06:22:20.130Z,99.90
2018-12-24T06:25:00.714Z,99.90
2018-12-24T06:27:41.483Z,99.90
2018-12-24T06:30:22.242Z,99.90
2018-12-24T06:33:02.906Z,99.90
2018-12-24T06:35:43.848Z,99.90
2018-12-24T06:38:24.635Z,99.90
2018-12-24T06:41:05.573Z,99.90
2018-12-24T06:43:46.229Z,99.90
2018-12-24T06:46:26.682Z,99.90
2018-12-24T06:49:07.122Z,99.90
2018-12-24T06:51:48.042Z,99.90
2018-12-24T06:54:28.869Z,99.90
2018-12-24T06:57:09.470Z,99.90
2018-12-24T06:59:50.066Z,99.90
2018-12-24T07:02:30.833Z,99.90
2018-12-24T07:05:11.666Z,99.90
2018-12-24T07:07:52.246Z,99.90
2018-12-24T07:10:32.913Z,99.90
2018-12-24T07:13:13.638Z,99.90
2018-12-24T07:15:54.006Z,99.90
2018-12-24T07:18:34.406Z,99.90
2018-12-24T07:21:15.406Z,99.90
2018-12-24T07:23:56.126Z,99.90
2018-12-24T07:26:36.838Z,99.90
2018-12-24T07:29:17.497Z,99.90
2018-12-24T07:31:58.348Z,99.90
2018-12-24T07:34:39.194Z,99.90
2018-12-24T07:37:20.202Z,99.90
2018-12-24T07:40:00.609Z,99.90
2018-12-24T07:42:41.310Z,99.90
2018-12-24T07:45:22.041Z,99.90
2018-12-24T07:48:02.694Z,99.90
2018-12-24T07:50:43.323Z,99.90
2018-12-24T07:53:24.053Z,99.80
2018-12-24T07:56:04.867Z,99.90
2018-12-24T07:58:45.706Z,99.90
2018-12-24T08:01:26.338Z,99.90
2018-12-24T08:04:07.374Z,99.90
2018-12-24T08:06:47.991Z,99.90
2018-12-24T08:09:28.730Z,99.90
2018-12-24T08:12:09.254Z,99.90
2018-12-24T08:14:50.254Z,99.90
2018-12-24T08:17:31.033Z,99.90
2018-12-24T08:20:11.709Z,99.90
2018-12-24T08:22:52.500Z,99.90
2018-12-24T08:25:33.410Z,99.90
2018-12-24T08:28:14.058Z,99.90
2018-12-24T08:30:55.289Z,99.90
2018-12-24T08:33:35.834Z,99.90
2018-12-24T08:36:16.261Z,99.90
2018-12-24T08:38:57.090Z,99.90
2018-12-24T08:41:37.779Z,99.90
2018-12-24T08:44:18.405Z,99.90
2018-12-24T08:46:58.873Z,99.90
2018-12-24T08:49:39.549Z,99.90
2018-12-24T08:52:20.257Z,99.90
2018-12-24T08:55:01.066Z,99.90
2018-12-24T08:57:41.854Z,99.90
2018-12-24T09:00:23.070Z,99.90
2018-12-24T09:03:03.809Z,99.90
2018-12-24T09:05:44.381Z,99.90
2018-12-24T09:08:25.336Z,99.90
2018-12-24T09:11:06.366Z,99.70
2018-12-24T09:13:47.138Z,99.70
2018-12-24T09:16:27.894Z,99.90
2018-12-24T09:19:08.515Z,99.90
2018-12-24T09:21:49.149Z,99.90
2018-12-24T09:24:30.185Z,99.90
2018-12-24T09:27:11.238Z,99.90
2018-12-24T09:29:52.378Z,99.90
2018-12-24T09:32:33.221Z,99.90
2018-12-24T09:35:13.858Z,99.90
2018-12-24T09:37:55.087Z,99.90
2018-12-24T09:40:35.597Z,99.90
2018-12-24T09:43:16.402Z,99.90
2018-12-24T09:45:57.510Z,99.90
2018-12-24T09:48:38.239Z,99.90
2018-12-24T09:51:18.770Z,99.90
2018-12-24T09:53:59.831Z,99.90
2018-12-24T09:56:40.838Z,99.90
2018-12-24T09:59:21.490Z,99.90
2018-12-24T10:02:02.197Z,99.90
2018-12-24T10:04:42.893Z,99.90
2018-12-24T10:07:48.840Z,99.90
2018-12-24T10:10:29.351Z,99.90
2018-12-24T10:13:10.430Z,99.90
2018-12-24T10:15:51.125Z,99.90
2018-12-24T10:18:31.881Z,99.90
2018-12-24T10:21:12.570Z,99.80
2018-12-24T10:23:53.627Z,99.60
2018-12-24T10:26:34.503Z,97.80
2018-12-24T10:29:15.089Z,97.40
2018-12-24T10:31:55.730Z,97.30
2018-12-24T10:34:36.600Z,98.30
2018-12-24T10:37:17.608Z,97.40
2018-12-24T10:39:58.152Z,96.70
2018-12-24T10:42:39.006Z,97.00
2018-12-24T10:45:19.761Z,96.60
2018-12-24T10:48:00.656Z,97.50
2018-12-24T10:50:41.586Z,96.70
2018-12-24T10:53:22.309Z,95.40
2018-12-24T10:56:02.922Z,96.20
2018-12-24T10:58:43.702Z,96.40
2018-12-24T11:01:24.673Z,96.50
2018-12-24T11:04:05.845Z,96.50
2018-12-24T11:06:46.727Z,96.20
2018-12-24T11:09:27.394Z,95.80
2018-12-24T11:12:08.150Z,95.60
2018-12-24T11:14:49.172Z,95.60
2018-12-24T11:17:30.153Z,95.80
2018-12-24T11:20:10.992Z,95.60
2018-12-24T11:22:51.768Z,94.60
2018-12-24T11:25:32.778Z,95.80
2018-12-24T11:28:13.780Z,95.70
2018-12-24T11:30:55.014Z,95.30
2018-12-24T11:33:35.728Z,95.70
2018-12-24T11:36:16.214Z,95.00
2018-12-24T11:38:56.778Z,94.80
2018-12-24T11:41:37.198Z,95.10
2018-12-24T11:44:17.841Z,95.90
2018-12-24T11:46:59.048Z,96.00
2018-12-24T11:49:39.773Z,95.80
2018-12-24T11:52:20.162Z,94.90
2018-12-24T11:55:00.763Z,95.30
2018-12-24T11:57:42.090Z,95.20
2018-12-24T12:00:22.682Z,95.30
2018-12-24T12:03:03.256Z,95.30
2018-12-24T12:05:44.143Z,94.80
2018-12-24T12:08:24.543Z,94.50
2018-12-24T12:11:05.546Z,94.90
2018-12-24T12:13:46.062Z,94.80
2018-12-24T12:16:26.989Z,95.20
2018-12-24T12:19:07.794Z,94.70
2018-12-24T12:21:48.462Z,94.90
2018-12-24T12:24:29.370Z,94.50
2018-12-24T12:27:10.118Z,94.20
2018-12-24T12:29:50.798Z,93.50
2018-12-24T12:32:31.477Z,94.10
2018-12-24T12:35:12.083Z,93.50
2018-12-24T12:37:52.712Z,93.70
2018-12-24T12:40:33.238Z,94.20
2018-12-24T12:43:15.463Z,94.80
2018-12-24T12:45:56.789Z,94.70
2018-12-24T12:48:37.413Z,95.10
2018-12-24T12:51:18.135Z,95.70
2018-12-24T12:53:58.665Z,95.40
2018-12-24T12:56:39.194Z,95.60
2018-12-24T12:59:19.970Z,95.70
2018-12-24T13:02:00.821Z,95.80
2018-12-24T13:04:41.698Z,95.50
2018-12-24T13:07:22.350Z,95.50
2018-12-24T13:10:04.547Z,95.40
2018-12-24T13:12:45.242Z,95.90
2018-12-24T13:15:25.937Z,95.70
2018-12-24T13:18:07.133Z,95.40
2018-12-24T13:20:48.207Z,95.50
2018-12-24T13:23:29.066Z,95.80
2018-12-24T13:26:09.946Z,95.50
2018-12-24T13:28:50.493Z,95.60
2018-12-24T13:31:30.978Z,95.90
2018-12-24T13:34:11.722Z,95.80
2018-12-24T13:36:52.382Z,95.70
2018-12-24T13:39:33.202Z,95.60
2018-12-24T13:42:13.862Z,95.60
2018-12-24T13:44:54.585Z,95.80
2018-12-24T13:47:35.323Z,95.90
2018-12-24T13:50:16.192Z,95.70
2018-12-24T13:52:56.967Z,95.90
2018-12-24T13:55:37.502Z,95.70
2018-12-24T13:58:18.335Z,95.40
2018-12-24T14:00:59.155Z,94.70
2018-12-24T14:03:40.098Z,94.00
2018-12-24T14:06:20.592Z,94.30
2018-12-24T14:09:01.324Z,94.80
2018-12-24T14:11:42.252Z,94.70
2018-12-24T14:14:23.057Z,94.70
2018-12-24T14:17:03.975Z,95.20
2018-12-24T14:19:44.905Z,95.50
2018-12-24T14:22:25.615Z,96.70
2018-12-24T14:25:06.702Z,97.40
2018-12-24T14:27:47.550Z,97.60
2018-12-24T14:30:28.508Z,97.80
2018-12-24T14:33:09.286Z,98.00
2018-12-24T14:35:49.926Z,98.20
2018-12-24T14:38:30.579Z,98.50
2018-12-24T14:41:11.329Z,98.60
2018-12-24T14:43:52.398Z,98.70
2018-12-24T14:46:33.228Z,98.70
2018-12-24T14:49:13.940Z,98.40
2018-12-24T14:51:54.922Z,98.60
2018-12-24T14:54:35.673Z,98.40
2018-12-24T14:57:16.473Z,98.40
2018-12-24T14:59:57.374Z,98.70
2018-12-24T15:02:38.133Z,98.90
2018-12-24T15:05:18.932Z,99.10
2018-12-24T15:07:59.833Z,98.80
2018-12-24T15:10:40.474Z,98.80
2018-12-24T15:13:21.366Z,98.90
2018-12-24T15:16:02.039Z,98.90
2018-12-24T15:18:42.696Z,99.10
2018-12-24T15:21:23.587Z,98.80
2018-12-24T15:24:04.528Z,98.70
2018-12-24T15:26:45.266Z,99.00
2018-12-24T15:29:26.254Z,99.00
2018-12-24T15:32:07.015Z,98.90
2018-12-24T15:34:47.922Z,98.90
2018-12-24T15:37:28.578Z,99.10
2018-12-24T15:40:09.217Z,99.10
2018-12-24T15:42:49.979Z,99.10
2018-12-24T15:45:30.441Z,99.20
2018-12-24T15:48:10.974Z,99.00
2018-12-24T15:50:51.738Z,99.30
2018-12-24T15:53:32.274Z,99.30
2018-12-24T15:56:13.090Z,99.40
2018-12-24T15:58:53.827Z,99.30
2018-12-24T16:01:34.665Z,99.00
2018-12-24T16:04:15.437Z,99.50
2018-12-24T16:06:56.377Z,99.20
2018-12-24T16:09:37.086Z,98.80
2018-12-24T16:12:17.683Z,99.00
2018-12-24T16:14:58.347Z,98.90
2018-12-24T16:17:39.120Z,99.90
2018-12-24T16:20:20.180Z,98.90
2018-12-24T16:23:00.986Z,98.80
2018-12-24T16:25:41.842Z,98.70
2018-12-24T16:28:22.531Z,98.80
2018-12-24T16:31:02.998Z,98.70
2018-12-24T16:33:43.755Z,98.80
2018-12-24T16:36:12.894Z,98.80
2018-12-24T16:39:01.022Z,98.90
2018-12-24T16:41:49.090Z,99.00
2018-12-24T16:44:37.138Z,98.90
2018-12-24T16:47:25.265Z,98.80
2018-12-24T16:50:13.335Z,98.90
2018-12-24T16:53:01.408Z,99.50
2018-12-24T16:58:56.702Z,98.70
2018-12-24T17:01:44.754Z,98.80
2018-12-24T17:04:32.911Z,98.80
2018-12-24T17:07:21.034Z,98.60
2018-12-24T17:10:09.073Z,98.50
2018-12-24T17:12:57.207Z,98.50
2018-12-24T17:15:45.275Z,98.60
2018-12-24T17:18:25.690Z,98.50
2018-12-24T17:21:06.526Z,98.20
2018-12-24T17:23:47.302Z,98.20
2018-12-24T17:26:27.990Z,98.00
2018-12-24T17:29:08.687Z,98.30
2018-12-24T17:31:49.420Z,98.50
2018-12-24T17:34:30.326Z,98.40
2018-12-24T17:37:10.913Z,98.20
2018-12-24T17:39:51.814Z,98.40
2018-12-24T17:42:32.592Z,98.30
2018-12-24T17:45:13.631Z,98.40
2018-12-24T17:47:54.378Z,98.40
2018-12-24T17:50:35.091Z,98.50
2018-12-24T17:53:15.718Z,98.50
2018-12-24T17:55:56.398Z,98.60
2018-12-24T17:58:37.158Z,98.60
2018-12-24T18:01:17.865Z,98.60
2018-12-24T18:03:58.586Z,98.50
2018-12-24T18:06:39.382Z,98.40
2018-12-24T18:09:20.234Z,98.50
2018-12-24T18:12:01.305Z,99.00
2018-12-24T18:14:41.903Z,98.40
2018-12-24T18:17:24.953Z,98.50
2018-12-24T18:20:05.538Z,98.70
2018-12-24T18:22:46.485Z,98.80
2018-12-24T18:25:27.398Z,98.70
2018-12-24T18:28:08.053Z,98.70
2018-12-24T18:30:48.938Z,98.70
2018-12-24T18:33:29.595Z,98.60
2018-12-24T18:36:10.383Z,98.50
2018-12-24T18:38:51.118Z,98.60
2018-12-24T18:41:31.622Z,98.70
2018-12-24T18:44:12.454Z,98.70
2018-12-24T18:46:53.155Z,98.70
2018-12-24T18:49:33.923Z,98.80
2018-12-24T18:52:14.791Z,98.90
2018-12-24T18:54:55.734Z,98.80
2018-12-24T18:57:36.307Z,98.80
2018-12-24T19:00:16.970Z,98.70
2018-12-24T19:02:57.821Z,98.90
2018-12-24T19:05:38.898Z,99.10
2018-12-24T19:08:19.667Z,99.10
2018-12-24T19:11:00.411Z,98.90
2018-12-24T19:13:40.965Z,99.40
2018-12-24T19:16:21.810Z,99.10
2018-12-24T19:19:02.799Z,99.00
2018-12-24T19:21:44.268Z,99.10
2018-12-24T19:24:24.949Z,99.20
2018-12-24T19:27:06.032Z,99.10
2018-12-24T19:29:46.803Z,99.20
2018-12-24T19:32:27.678Z,99.20
2018-12-24T19:35:06.877Z,99.10
2018-12-24T19:37:54.932Z,99.30
2018-12-24T19:40:43.054Z,99.30
2018-12-24T19:43:31.200Z,99.10
2018-12-24T19:46:19.326Z,99.90
2018-12-24T19:49:07.444Z,99.20
2018-12-24T19:51:55.493Z,98.90
2018-12-24T19:54:43.609Z,99.00
2018-12-24T19:57:31.687Z,99.00
2018-12-24T20:00:19.726Z,99.00
2018-12-24T20:03:07.851Z,98.90
2018-12-24T20:05:55.910Z,99.00
2018-12-24T20:08:43.955Z,99.10
2018-12-24T20:11:32.116Z,99.10
2018-12-24T20:14:20.153Z,99.10
2018-12-24T20:17:01.045Z,99.10
2018-12-24T20:19:41.436Z,99.10
2018-12-24T20:22:22.037Z,99.10
2018-12-24T20:25:03.035Z,99.10
2018-12-24T20:27:43.933Z,99.20
2018-12-24T20:30:25.033Z,99.00
2018-12-24T20:33:05.702Z,99.10
2018-12-24T20:35:46.757Z,99.00
2018-12-24T20:38:27.526Z,98.80
2018-12-24T20:41:08.321Z,98.90
2018-12-24T20:43:48.980Z,98.90
2018-12-24T20:46:29.698Z,98.90
2018-12-24T20:49:10.326Z,98.80
2018-12-24T20:51:51.174Z,98.90
2018-12-24T20:54:31.750Z,98.90
2018-12-24T20:57:12.394Z,98.80
2018-12-24T20:59:52.926Z,98.80
2018-12-24T21:02:33.574Z,98.70
2018-12-24T21:05:12.810Z,98.70
2018-12-24T21:08:00.908Z,98.90
2018-12-24T21:10:48.960Z,99.90
2018-12-24T21:13:37.094Z,99.90
2018-12-24T21:16:17.670Z,99.40
2018-12-24T21:18:58.114Z,98.10
2018-12-24T21:21:38.830Z,98.20
2018-12-24T21:24:20.044Z,98.30
2018-12-24T21:27:01.302Z,98.50
2018-12-24T21:29:41.639Z,98.50
2018-12-24T21:32:22.709Z,98.50
2018-12-24T21:35:03.559Z,98.60
2018-12-24T21:37:44.351Z,98.40
2018-12-24T21:40:25.031Z,98.60
2018-12-24T21:43:05.784Z,98.70
2018-12-24T21:45:46.631Z,98.70
2018-12-24T21:48:27.233Z,98.70
2018-12-24T21:51:07.970Z,98.80
2018-12-24T21:53:48.626Z,98.70
2018-12-24T21:56:29.513Z,98.80
2018-12-24T21:59:10.410Z,99.00
2018-12-24T22:01:51.054Z,98.70
2018-12-24T22:04:31.971Z,98.70
2018-12-24T22:07:12.590Z,98.70
2018-12-24T22:09:51.797Z,98.90
2018-12-24T22:12:39.846Z,98.90
2018-12-24T22:15:27.987Z,98.80
2018-12-24T22:18:09.202Z,98.60
2018-12-24T22:20:49.940Z,98.60
2018-12-24T22:23:30.622Z,98.60
2018-12-24T22:26:11.334Z,98.40
2018-12-24T22:28:52.257Z,98.60
2018-12-24T22:31:32.990Z,98.50
2018-12-24T22:34:14.098Z,98.40
2018-12-24T22:36:55.110Z,98.30
2018-12-24T22:39:36.074Z,98.50
2018-12-24T22:42:16.870Z,98.60
2018-12-24T22:44:57.730Z,98.50
2018-12-24T22:47:38.445Z,98.60
2018-12-24T22:50:19.300Z,98.50
2018-12-24T22:53:00.086Z,98.70
2018-12-24T22:55:40.699Z,98.50
2018-12-24T22:58:21.447Z,98.50
2018-12-24T23:01:02.382Z,98.40
2018-12-24T23:03:43.127Z,99.30
2018-12-24T23:06:23.889Z,98.30
2018-12-24T23:09:05.051Z,98.20
2018-12-24T23:11:46.205Z,98.30
2018-12-24T23:14:27.007Z,98.40
2018-12-24T23:17:08.077Z,98.30
2018-12-24T23:19:48.702Z,98.30
2018-12-24T23:22:29.801Z,98.30
2018-12-24T23:25:10.390Z,98.30
2018-12-24T23:27:50.795Z,98.30
2018-12-24T23:30:31.427Z,98.10
2018-12-24T23:33:12.542Z,98.10
2018-12-24T23:35:53.478Z,98.80
2018-12-24T23:38:34.127Z,99.00
2018-12-24T23:41:15.026Z,98.40
2018-12-24T23:43:55.362Z,98.60
2018-12-24T23:46:36.135Z,99.00
2018-12-24T23:49:17.387Z,98.30
2018-12-24T23:51:57.950Z,98.10
2018-12-24T23:54:38.602Z,98.10
2018-12-24T23:57:19.057Z,98.20
2018-12-24T23:59:59.710Z,98.30
